Sunny Clover — H3SY — position and weather

sailwx.info

Track history (hours):
 
Tides and Currents Weather Stations Pressure Air Temp Water Temp Dewpoint Dewpoint Depression Visibility Wind Speed Wind Dir Waves Ship Positions

Sunny Clover

Last reported at 2016-Jul-24 13:33 UTC. Time now 2016-Jul-24 14:41 UTC.
Position N 23°33' E 117°51'.

Length 137 m; draft 7.1 m.

Type: Cargo ship. MMSI: 374431000.

Date/timePositionNaut miles runAvg speedWind from/ knotsBaromVisibWave heightAir tempDewpointWater temp
2016-Jul-24 13:33N 23°33' E 117°51'1414.0
2016-Jul-24 12:33N 23°42' E 118°03'1514.1
2016-Jul-24 11:30N 23°50' E 118°16'1414.4
2016-Jul-24 10:33N 23°58' E 118°29'1514.6
2016-Jul-24 09:33N 24°05' E 118°43'1414.3
2016-Jul-24 08:33N 24°14' E 118°55'1414.0
2016-Jul-24 07:33N 24°21' E 119°08'1413.7
2016-Jul-24 06:33N 24°29' E 119°20'1414.1
2016-Jul-24 05:33N 24°37' E 119°33'1414.4
2016-Jul-24 04:33N 24°45' E 119°47'1514.2
2016-Jul-24 03:31N 24°53' E 119°60'1413.8
2016-Jul-24 02:29N 25°05' E 120°09'1313.7
2016-Jul-24 01:32N 25°16' E 120°16'33014.4
2016-Jul-23 02:33N 29°51' E 123°43'  
2016-Jul-18 22:06N 34°37' E 125°01'68715.8
2016-Jul-17 02:33N 24°18' E 119°19'2517.3
2016-Jul-17 01:05N 24°05' E 118°55'28716.4
2016-Jul-16 07:33N 22°17' E 114°06'1111.6
2016-Jul-16 06:33N 22°22' E 113°54'6 1.2
2016-Jul-16 01:23N 22°28' E 113°54'0 0.0
2016-Jul-16 00:29N 22°28' E 113°54'0 0.0
2016-Jul-15 23:23N 22°28' E 113°54'0 0.0
2016-Jul-15 22:29N 22°28' E 113°54'0 0.0
2016-Jul-15 21:29N 22°28' E 113°54'0 0.0
2016-Jul-15 20:29N 22°28' E 113°54'0 0.0
2016-Jul-15 19:29N 22°28' E 113°54'0 0.0
2016-Jul-15 18:29N 22°28' E 113°54'0 0.0
2016-Jul-15 17:29N 22°28' E 113°54'0 0.0
2016-Jul-15 16:29N 22°28' E 113°54'2 2.3
2016-Jul-15 15:33N 22°26' E 113°53'10 8.5
2016-Jul-15 14:23N 22°21' E 114°03'16512.7
2016-Jul-15 01:28N 20°38' E 111°45'7013.7
2016-Jul-14 20:19N 20°14' E 110°34'1110.6
2016-Jul-14 19:16N 20°11' E 110°23'810.4
2016-Jul-14 18:28N 20°10' E 110°14'1010.3
2016-Jul-14 17:29N 20°09' E 110°03'  
Track history (hours):
 
Tides and Currents Weather Stations Pressure Air Temp Water Temp Dewpoint Dewpoint Depression Visibility Wind Speed Wind Dir Waves Ship Positions

Sunny Clover

Last reported at 2016-Jul-24 13:33 UTC. Time now 2016-Jul-24 14:41 UTC.
Position N 23°33' E 117°51'.

Length 137 m; draft 7.1 m.

Type: Cargo ship. MMSI: 374431000.

Date/timePositionNaut miles runAvg speedWind from/ knotsBaromVisibWave heightAir tempDewpointWater temp
2016-Jul-24 13:33N 23°33' E 117°51'1414.0
2016-Jul-24 12:33N 23°42' E 118°03'1514.1
2016-Jul-24 11:30N 23°50' E 118°16'1414.4
2016-Jul-24 10:33N 23°58' E 118°29'1514.6
2016-Jul-24 09:33N 24°05' E 118°43'1414.3
2016-Jul-24 08:33N 24°14' E 118°55'1414.0
2016-Jul-24 07:33N 24°21' E 119°08'1413.7
2016-Jul-24 06:33N 24°29' E 119°20'1414.1
2016-Jul-24 05:33N 24°37' E 119°33'1414.4
2016-Jul-24 04:33N 24°45' E 119°47'1514.2
2016-Jul-24 03:31N 24°53' E 119°60'1413.8
2016-Jul-24 02:29N 25°05' E 120°09'1313.7
2016-Jul-24 01:32N 25°16' E 120°16'33014.4
2016-Jul-23 02:33N 29°51' E 123°43'  
2016-Jul-18 22:06N 34°37' E 125°01'68715.8
2016-Jul-17 02:33N 24°18' E 119°19'2517.3
2016-Jul-17 01:05N 24°05' E 118°55'28716.4
2016-Jul-16 07:33N 22°17' E 114°06'1111.6
2016-Jul-16 06:33N 22°22' E 113°54'6 1.2
2016-Jul-16 01:23N 22°28' E 113°54'0 0.0
2016-Jul-16 00:29N 22°28' E 113°54'0 0.0
2016-Jul-15 23:23N 22°28' E 113°54'0 0.0
2016-Jul-15 22:29N 22°28' E 113°54'0 0.0
2016-Jul-15 21:29N 22°28' E 113°54'0 0.0
2016-Jul-15 20:29N 22°28' E 113°54'0 0.0
2016-Jul-15 19:29N 22°28' E 113°54'0 0.0
2016-Jul-15 18:29N 22°28' E 113°54'0 0.0
2016-Jul-15 17:29N 22°28' E 113°54'0 0.0
2016-Jul-15 16:29N 22°28' E 113°54'2 2.3
2016-Jul-15 15:33N 22°26' E 113°53'10 8.5
2016-Jul-15 14:23N 22°21' E 114°03'16512.7
2016-Jul-15 01:28N 20°38' E 111°45'7013.7
2016-Jul-14 20:19N 20°14' E 110°34'1110.6
2016-Jul-14 19:16N 20°11' E 110°23'810.4
2016-Jul-14 18:28N 20°10' E 110°14'1010.3
2016-Jul-14 17:29N 20°09' E 110°03'  

Dump ship's entire track history